createdAt,value
2023-07-03T00:00:54.360Z,64.40
2023-07-03T00:03:22.358Z,64.60
2023-07-03T00:05:50.743Z,64.50
2023-07-03T00:08:19.697Z,64.40
2023-07-03T00:10:48.352Z,64.40
2023-07-03T00:13:16.593Z,64.40
2023-07-03T00:15:46.097Z,64.30
2023-07-03T00:18:13.984Z,64.30
2023-07-03T00:20:42.070Z,64.20
2023-07-03T00:23:10.417Z,64.30
2023-07-03T00:25:39.922Z,64.20
2023-07-03T00:28:10.104Z,64.20
2023-07-03T00:30:38.840Z,64.10
2023-07-03T00:33:08.830Z,64.20
2023-07-03T00:35:37.109Z,64.10
2023-07-03T00:38:05.261Z,64.00
2023-07-03T00:40:33.608Z,64.00
2023-07-03T00:43:02.143Z,64.00
2023-07-03T00:45:30.422Z,64.00
2023-07-03T00:47:59.873Z,64.10
2023-07-03T00:50:30.417Z,64.00
2023-07-03T00:53:01.625Z,64.00
2023-07-03T00:55:29.867Z,64.00
2023-07-03T00:57:59.729Z,64.00
2023-07-03T01:00:41.852Z,64.00
2023-07-03T01:03:17.984Z,64.00
2023-07-03T01:05:51.924Z,63.90
2023-07-03T01:08:22.042Z,64.10
2023-07-03T01:10:50.742Z,64.30
2023-07-03T01:13:20.239Z,64.20
2023-07-03T01:15:49.228Z,64.20
2023-07-03T01:18:20.454Z,64.30
2023-07-03T01:20:58.978Z,64.30
2023-07-03T01:23:31.242Z,64.30
2023-07-03T01:26:01.872Z,64.30
2023-07-03T01:28:32.143Z,64.30
2023-07-03T01:31:00.909Z,64.30
2023-07-03T01:33:41.677Z,64.30
2023-07-03T01:36:27.444Z,64.30
2023-07-03T01:38:56.659Z,64.30
2023-07-03T01:41:27.859Z,64.30
2023-07-03T01:43:55.849Z,64.30
2023-07-03T01:46:24.982Z,64.30
2023-07-03T01:48:53.071Z,64.30
2023-07-03T01:51:30.629Z,64.30
2023-07-03T01:54:06.974Z,64.30
2023-07-03T01:56:42.556Z,64.30
2023-07-03T01:59:13.748Z,64.30
2023-07-03T02:01:48.375Z,64.30
2023-07-03T02:04:25.686Z,64.30
2023-07-03T02:06:55.297Z,64.30
2023-07-03T02:09:25.539Z,64.30
2023-07-03T02:11:55.499Z,64.20
2023-07-03T02:14:26.092Z,64.30
2023-07-03T02:16:54.629Z,64.20
2023-07-03T02:19:30.041Z,64.20
2023-07-03T02:21:58.427Z,64.30
2023-07-03T02:24:26.657Z,64.30
2023-07-03T02:26:56.031Z,64.30
2023-07-03T02:29:24.481Z,64.20
2023-07-03T02:31:52.454Z,64.20
2023-07-03T02:34:22.267Z,64.20
2023-07-03T02:36:50.491Z,64.20
2023-07-03T02:39:18.754Z,64.20
2023-07-03T02:41:46.663Z,64.30
2023-07-03T02:44:16.126Z,64.30
2023-07-03T02:46:44.271Z,64.30
2023-07-03T02:49:12.174Z,64.40
2023-07-03T02:51:42.830Z,64.50
2023-07-03T02:54:12.199Z,64.40
2023-07-03T02:56:40.071Z,64.50
2023-07-03T02:59:08.391Z,64.50
2023-07-03T03:01:38.755Z,64.50
2023-07-03T03:04:06.638Z,64.60
2023-07-03T03:06:35.292Z,64.60
2023-07-03T03:09:03.343Z,64.50
2023-07-03T03:11:31.186Z,64.50
2023-07-03T03:13:59.313Z,64.50
2023-07-03T03:16:27.744Z,64.50
2023-07-03T03:18:57.401Z,64.60
2023-07-03T03:21:25.320Z,64.60
2023-07-03T03:23:53.169Z,64.60
2023-07-03T03:26:21.600Z,64.60
2023-07-03T03:28:49.428Z,64.70
2023-07-03T03:31:17.702Z,64.80
2023-07-03T03:33:46.537Z,64.70
2023-07-03T03:36:15.819Z,64.70
2023-07-03T03:38:43.904Z,64.80
2023-07-03T03:41:11.817Z,64.70
2023-07-03T03:43:39.810Z,64.60
2023-07-03T03:46:09.118Z,64.60
2023-07-03T03:48:39.831Z,64.60
2023-07-03T03:51:07.802Z,64.50
2023-07-03T03:53:37.260Z,64.60
2023-07-03T03:56:06.311Z,64.60
2023-07-03T03:58:34.229Z,64.60
2023-07-03T04:01:03.263Z,64.70
2023-07-03T04:03:31.202Z,64.60
2023-07-03T04:06:03.572Z,64.50
2023-07-03T04:08:31.769Z,64.50
2023-07-03T04:11:04.231Z,64.60
2023-07-03T04:13:32.213Z,64.50
2023-07-03T04:16:03.352Z,64.50
2023-07-03T04:18:34.093Z,64.60
2023-07-03T04:21:02.083Z,64.60
2023-07-03T04:23:33.243Z,64.50
2023-07-03T04:26:03.901Z,64.50
2023-07-03T04:28:31.868Z,64.50
2023-07-03T04:30:59.830Z,64.60
2023-07-03T04:33:27.702Z,64.70
2023-07-03T04:35:55.943Z,64.70
2023-07-03T04:38:24.833Z,64.80
2023-07-03T04:40:53.494Z,65.00
2023-07-03T04:43:23.516Z,64.80
2023-07-03T04:45:53.264Z,64.40
2023-07-03T04:48:21.726Z,64.50
2023-07-03T04:50:50.792Z,64.50
2023-07-03T04:53:22.045Z,64.40
2023-07-03T04:55:52.141Z,64.40
2023-07-03T04:58:20.348Z,64.40
2023-07-03T05:00:50.106Z,64.60
2023-07-03T05:03:18.618Z,64.70
2023-07-03T05:05:46.859Z,64.80
2023-07-03T05:08:14.637Z,64.80
2023-07-03T05:10:44.861Z,64.90
2023-07-03T05:13:12.745Z,64.90
2023-07-03T05:15:40.698Z,64.90
2023-07-03T05:18:10.113Z,65.00
2023-07-03T05:20:38.005Z,65.00
2023-07-03T05:23:05.896Z,65.10
2023-07-03T05:25:33.755Z,65.30
2023-07-03T05:28:01.544Z,65.30
2023-07-03T05:30:29.636Z,65.40
2023-07-03T05:32:57.772Z,65.40
2023-07-03T05:35:27.396Z,65.30
2023-07-03T05:37:55.152Z,65.40
2023-07-03T05:40:23.290Z,65.20
2023-07-03T05:42:51.070Z,65.20
2023-07-03T05:45:22.111Z,65.00
2023-07-03T05:47:51.989Z,65.00
2023-07-03T05:50:19.843Z,64.90
2023-07-03T05:52:49.520Z,64.90
2023-07-03T05:55:19.850Z,64.90
2023-07-03T05:57:47.697Z,64.90
2023-07-03T06:00:16.639Z,65.00
2023-07-03T06:02:45.646Z,65.00
2023-07-03T06:05:14.484Z,65.30
2023-07-03T06:07:42.661Z,65.40
2023-07-03T06:10:13.646Z,65.50
2023-07-03T06:12:41.787Z,65.30
2023-07-03T06:15:10.936Z,65.40
2023-07-03T06:17:39.941Z,65.10
2023-07-03T06:20:10.104Z,65.00
2023-07-03T06:22:38.040Z,65.00
2023-07-03T06:25:07.757Z,64.80
2023-07-03T06:27:37.118Z,64.50
2023-07-03T06:30:05.899Z,64.50
2023-07-03T06:32:33.835Z,64.50
2023-07-03T06:35:05.180Z,64.80
2023-07-03T06:37:35.095Z,65.00
2023-07-03T06:40:03.460Z,65.00
2023-07-03T06:42:31.290Z,64.90
2023-07-03T06:45:00.415Z,65.00
2023-07-03T06:47:28.336Z,65.10
2023-07-03T06:49:56.248Z,65.30
2023-07-03T06:52:24.056Z,65.60
2023-07-03T06:54:52.255Z,65.70
2023-07-03T06:57:20.091Z,65.70
2023-07-03T06:59:47.919Z,65.60
2023-07-03T07:02:17.142Z,65.40
2023-07-03T07:04:46.551Z,65.50
2023-07-03T07:07:14.722Z,65.80
2023-07-03T07:09:42.692Z,65.80
2023-07-03T07:12:10.663Z,65.70
2023-07-03T07:14:38.730Z,65.50
2023-07-03T07:17:07.048Z,65.60
2023-07-03T07:19:36.213Z,65.50
2023-07-03T07:22:04.725Z,65.40
2023-07-03T07:24:32.619Z,65.40
2023-07-03T07:27:01.530Z,65.40
2023-07-03T07:29:29.383Z,65.80
2023-07-03T07:31:58.822Z,65.90
2023-07-03T07:34:26.909Z,65.90
2023-07-03T07:36:56.122Z,66.00
2023-07-03T07:39:26.995Z,66.10
2023-07-03T07:41:56.701Z,65.90
2023-07-03T07:44:25.124Z,65.80
2023-07-03T07:46:53.176Z,65.70
2023-07-03T07:49:21.065Z,65.80
2023-07-03T07:51:48.868Z,65.90
2023-07-03T07:54:18.393Z,65.80
2023-07-03T07:56:46.493Z,65.90
2023-07-03T07:59:15.432Z,65.90
2023-07-03T08:01:43.634Z,65.80
2023-07-03T08:04:11.561Z,65.60
2023-07-03T08:06:39.413Z,65.40
2023-07-03T08:09:07.216Z,65.70
2023-07-03T08:11:36.439Z,66.10
2023-07-03T08:14:04.260Z,66.50
2023-07-03T08:16:32.072Z,66.50
2023-07-03T08:18:59.929Z,66.50
2023-07-03T08:21:28.836Z,66.40
2023-07-03T08:23:56.766Z,66.30
2023-07-03T08:26:26.373Z,66.30
2023-07-03T08:28:55.490Z,66.20
2023-07-03T08:31:23.279Z,66.20
2023-07-03T08:33:53.590Z,66.10
2023-07-03T08:38:52.514Z,65.70
2023-07-03T08:41:21.296Z,65.80
2023-07-03T08:43:51.894Z,66.20
2023-07-03T08:46:24.696Z,66.30
2023-07-03T08:48:55.883Z,66.60
2023-07-03T08:51:27.128Z,66.50
2023-07-03T08:53:58.596Z,66.50
2023-07-03T08:56:30.546Z,66.30
2023-07-03T08:58:58.638Z,66.20
2023-07-03T09:01:37.129Z,65.90
2023-07-03T09:04:17.754Z,65.80
2023-07-03T09:06:56.422Z,65.70
2023-07-03T09:09:29.794Z,65.50
2023-07-03T09:12:03.961Z,65.40
2023-07-03T09:14:35.562Z,65.30
2023-07-03T09:17:09.554Z,65.10
2023-07-03T09:19:41.368Z,66.00
2023-07-03T09:22:15.444Z,66.40
2023-07-03T09:24:46.423Z,65.90
2023-07-03T09:27:18.474Z,65.90
2023-07-03T09:29:47.504Z,65.70
2023-07-03T09:32:28.179Z,65.40
2023-07-03T09:35:01.172Z,65.30
2023-07-03T09:37:29.698Z,65.10
2023-07-03T09:39:58.020Z,65.10
2023-07-03T09:42:28.005Z,65.00
2023-07-03T09:44:58.984Z,64.70
2023-07-03T09:47:33.238Z,65.00
2023-07-03T09:50:07.676Z,65.20
2023-07-03T09:52:47.247Z,65.50
2023-07-03T09:55:22.296Z,65.70
2023-07-03T09:57:50.591Z,65.60
2023-07-03T10:00:22.028Z,65.60
2023-07-03T10:08:05.285Z,65.20
2023-07-03T10:13:14.831Z,65.30
2023-07-03T10:15:45.188Z,65.40
2023-07-03T10:18:29.454Z,65.40
2023-07-03T10:20:58.601Z,65.70
2023-07-03T10:23:29.474Z,65.50
2023-07-03T10:26:05.946Z,65.30
2023-07-03T10:28:38.944Z,65.30
2023-07-03T10:31:11.993Z,65.20
2023-07-03T10:33:47.564Z,65.40
2023-07-03T10:36:20.634Z,65.30
2023-07-03T10:38:56.510Z,65.50
2023-07-03T10:41:28.950Z,65.60
2023-07-03T10:44:01.021Z,65.70
2023-07-03T10:46:35.379Z,66.10
2023-07-03T10:49:11.159Z,66.10
2023-07-03T10:51:48.250Z,66.30
2023-07-03T10:54:22.937Z,66.50
2023-07-03T10:56:56.498Z,66.70
2023-07-03T10:59:28.898Z,66.80
2023-07-03T11:02:09.800Z,67.00
2023-07-03T11:04:46.890Z,67.10
2023-07-03T11:07:24.359Z,67.00
2023-07-03T11:10:00.660Z,67.10
2023-07-03T11:12:37.220Z,67.00
2023-07-03T11:15:17.072Z,67.10
2023-07-03T11:23:14.442Z,66.40
2023-07-03T11:28:28.648Z,66.00
2023-07-03T11:30:57.434Z,65.90
2023-07-03T11:33:25.847Z,65.90
2023-07-03T11:35:57.078Z,65.90
2023-07-03T11:43:50.282Z,65.40
2023-07-03T11:46:24.614Z,64.90
2023-07-03T11:48:58.198Z,64.10
2023-07-03T11:51:36.393Z,64.40
2023-07-03T11:54:21.257Z,65.10
2023-07-03T11:56:55.612Z,65.90
2023-07-03T11:59:32.939Z,66.40
2023-07-03T12:02:46.697Z,66.60
2023-07-03T12:05:54.754Z,66.90
2023-07-03T12:08:46.152Z,67.10
2023-07-03T12:11:16.080Z,67.10
2023-07-03T12:14:00.702Z,67.30
2023-07-03T12:16:33.373Z,67.40
2023-07-03T12:19:08.391Z,67.60
2023-07-03T12:21:44.074Z,67.70
2023-07-03T12:24:22.546Z,67.90
2023-07-03T12:26:56.209Z,67.90
2023-07-03T12:29:24.324Z,67.70
2023-07-03T12:31:57.006Z,67.40
2023-07-03T12:34:28.458Z,67.00
2023-07-03T12:37:05.181Z,67.50
2023-07-03T12:39:35.069Z,67.00
2023-07-03T12:42:11.325Z,66.80
2023-07-03T12:44:39.631Z,66.70
2023-07-03T12:47:13.854Z,66.50
2023-07-03T12:49:59.955Z,66.50
2023-07-03T12:52:30.323Z,66.60
2023-07-03T12:55:13.081Z,66.70
2023-07-03T12:57:42.770Z,66.50
2023-07-03T13:00:18.031Z,66.10
2023-07-03T13:02:46.689Z,66.50
2023-07-03T13:05:21.735Z,66.30
2023-07-03T13:07:51.144Z,66.10
2023-07-03T13:10:21.410Z,66.10
2023-07-03T13:13:05.514Z,66.10
2023-07-03T13:15:35.559Z,66.00
2023-07-03T13:18:05.930Z,66.10
2023-07-03T13:20:34.030Z,66.20
2023-07-03T13:23:03.410Z,66.10
2023-07-03T13:25:35.777Z,66.10
2023-07-03T13:28:06.850Z,66.00
2023-07-03T13:30:37.814Z,66.00
2023-07-03T13:33:09.101Z,66.60
2023-07-03T13:35:40.584Z,66.10
2023-07-03T13:38:30.009Z,66.00
2023-07-03T13:41:01.294Z,65.90
2023-07-03T13:43:31.395Z,66.00
2023-07-03T13:46:00.046Z,66.00
2023-07-03T13:48:29.253Z,65.90
2023-07-03T13:50:57.835Z,65.90
2023-07-03T13:53:27.539Z,66.10
2023-07-03T13:55:56.058Z,66.10
2023-07-03T13:58:26.535Z,66.00
2023-07-03T14:00:54.514Z,65.90
2023-07-03T14:03:22.519Z,65.90
2023-07-03T14:05:51.283Z,65.90
2023-07-03T14:08:19.543Z,66.10
2023-07-03T14:10:48.069Z,66.10
2023-07-03T14:13:15.896Z,66.00
2023-07-03T14:15:45.319Z,66.20
2023-07-03T14:18:13.695Z,66.20
2023-07-03T14:20:42.940Z,66.30
2023-07-03T14:23:11.195Z,66.40
2023-07-03T14:25:40.146Z,66.30
2023-07-03T14:28:08.781Z,66.40
2023-07-03T14:30:36.630Z,66.50
2023-07-03T14:33:06.525Z,66.50
2023-07-03T14:35:35.189Z,66.40
2023-07-03T14:38:03.033Z,66.40
2023-07-03T14:40:30.865Z,66.40
2023-07-03T14:42:58.704Z,66.10
2023-07-03T14:45:26.867Z,66.20
2023-07-03T14:47:54.654Z,66.20
2023-07-03T14:50:23.869Z,66.40
2023-07-03T14:52:52.062Z,66.60
2023-07-03T14:55:20.554Z,66.80
2023-07-03T14:57:48.489Z,66.90
2023-07-03T15:00:16.935Z,67.10
2023-07-03T15:02:49.900Z,67.30
2023-07-03T15:05:18.989Z,67.50
2023-07-03T15:07:51.210Z,67.70
2023-07-03T15:10:21.005Z,67.60
2023-07-03T15:12:49.079Z,67.40
2023-07-03T15:15:17.002Z,67.30
2023-07-03T15:17:44.784Z,67.10
2023-07-03T15:20:13.192Z,67.00
2023-07-03T15:22:41.022Z,67.00
2023-07-03T15:25:10.860Z,66.80
2023-07-03T15:27:38.658Z,66.80
2023-07-03T15:30:07.552Z,66.80
2023-07-03T15:32:35.306Z,66.90
2023-07-03T15:35:03.289Z,66.90
2023-07-03T15:37:31.033Z,67.10
2023-07-03T15:39:58.755Z,67.30
2023-07-03T15:42:28.063Z,67.40
2023-07-03T15:44:57.165Z,67.30
2023-07-03T15:47:25.868Z,67.30
2023-07-03T15:49:56.549Z,67.30
2023-07-03T15:52:24.796Z,67.90
2023-07-03T15:54:53.356Z,67.10
2023-07-03T15:57:22.549Z,67.10
2023-07-03T15:59:51.871Z,67.00
2023-07-03T16:02:19.714Z,67.00
2023-07-03T16:04:47.560Z,66.90
2023-07-03T16:07:15.362Z,66.90
2023-07-03T16:09:43.846Z,66.90
2023-07-03T16:12:11.762Z,66.90
2023-07-03T16:14:39.689Z,66.80
2023-07-03T16:17:08.877Z,66.80
2023-07-03T16:19:37.917Z,66.80
2023-07-03T16:22:07.150Z,67.10
2023-07-03T16:24:35.886Z,67.40
2023-07-03T16:27:04.812Z,67.40
2023-07-03T16:29:33.650Z,67.40
2023-07-03T16:32:02.853Z,67.70
2023-07-03T16:34:32.284Z,67.80
2023-07-03T16:37:00.056Z,67.80
2023-07-03T16:39:27.822Z,67.90
2023-07-03T16:41:56.636Z,67.90
2023-07-03T16:44:24.956Z,68.60
2023-07-03T16:47:03.013Z,67.90
2023-07-03T16:49:38.868Z,68.00
2023-07-03T16:52:07.654Z,67.90
2023-07-03T16:54:35.993Z,67.90
2023-07-03T16:57:03.868Z,68.00
2023-07-03T16:59:33.808Z,68.00
2023-07-03T17:02:02.050Z,68.00
2023-07-03T17:04:30.920Z,68.00
2023-07-03T17:07:00.172Z,68.00
2023-07-03T17:09:28.236Z,68.10
2023-07-03T17:11:56.405Z,68.00
2023-07-03T17:14:26.079Z,68.00
2023-07-03T17:16:54.155Z,67.90
2023-07-03T17:19:22.739Z,67.80
2023-07-03T17:21:50.933Z,67.70
2023-07-03T17:24:21.662Z,67.80
2023-07-03T17:26:49.474Z,67.70
2023-07-03T17:29:19.583Z,67.60
2023-07-03T17:31:47.593Z,67.50
2023-07-03T17:34:15.988Z,67.40
2023-07-03T17:36:43.855Z,67.40
2023-07-03T17:39:12.188Z,67.40
2023-07-03T17:41:44.307Z,67.50
2023-07-03T17:44:12.116Z,67.50
2023-07-03T17:46:42.419Z,67.70
2023-07-03T17:49:10.297Z,67.80
2023-07-03T17:51:39.791Z,67.70
2023-07-03T17:54:07.814Z,67.60
2023-07-03T17:56:35.806Z,67.60
2023-07-03T17:59:07.384Z,67.60
2023-07-03T18:01:36.680Z,67.50
2023-07-03T18:04:06.423Z,67.50
2023-07-03T18:06:35.670Z,67.50
2023-07-03T18:09:05.368Z,67.40
2023-07-03T18:11:33.256Z,67.50
2023-07-03T18:14:03.233Z,67.60
2023-07-03T18:16:32.456Z,67.70
2023-07-03T18:19:00.284Z,67.70
2023-07-03T18:21:28.600Z,67.70
2023-07-03T18:23:58.369Z,67.70
2023-07-03T18:26:26.453Z,67.70
2023-07-03T18:28:56.252Z,67.70
2023-07-03T18:31:27.263Z,67.70
2023-07-03T18:33:57.003Z,67.70
2023-07-03T18:36:25.597Z,67.70
2023-07-03T18:38:54.029Z,67.60
2023-07-03T18:41:22.808Z,67.50
2023-07-03T18:43:50.887Z,67.70
2023-07-03T18:46:18.827Z,67.50
2023-07-03T18:48:46.925Z,67.50
2023-07-03T18:51:22.525Z,67.50
2023-07-03T18:53:50.649Z,67.40
2023-07-03T18:56:21.695Z,67.40
2023-07-03T18:58:50.991Z,67.30
2023-07-03T19:01:19.954Z,67.50
2023-07-03T19:03:48.221Z,67.70
2023-07-03T19:06:19.713Z,67.60
2023-07-03T19:08:47.532Z,67.70
2023-07-03T19:11:15.513Z,67.60
2023-07-03T19:13:43.870Z,67.70
2023-07-03T19:16:14.452Z,67.90
2023-07-03T19:18:42.763Z,67.90
2023-07-03T19:21:13.267Z,68.00
2023-07-03T19:23:42.756Z,68.00
2023-07-03T19:26:11.365Z,68.00
2023-07-03T19:28:39.812Z,68.00
2023-07-03T19:31:08.034Z,68.00
2023-07-03T19:33:36.092Z,67.90
2023-07-03T19:36:04.119Z,68.70
2023-07-03T19:38:32.047Z,67.90
2023-07-03T19:41:01.816Z,67.90
2023-07-03T19:43:29.804Z,67.80
2023-07-03T19:45:58.006Z,67.90
2023-07-03T19:48:26.326Z,67.80
2023-07-03T19:50:54.196Z,67.80
2023-07-03T19:53:22.080Z,67.80
2023-07-03T19:55:50.149Z,67.90
2023-07-03T19:58:19.500Z,67.80
2023-07-03T20:00:53.508Z,67.90
2023-07-03T20:03:21.603Z,67.90
2023-07-03T20:05:49.842Z,67.90
2023-07-03T20:08:17.743Z,68.00
2023-07-03T20:10:47.564Z,67.90
2023-07-03T20:13:15.408Z,68.10
2023-07-03T20:15:44.766Z,68.00
2023-07-03T20:18:12.733Z,68.10
2023-07-03T20:20:41.409Z,68.20
2023-07-03T20:23:09.311Z,68.30
2023-07-03T20:25:38.293Z,68.20
2023-07-03T20:28:08.076Z,68.30
2023-07-03T20:30:35.971Z,68.30
2023-07-03T20:33:05.344Z,68.30
2023-07-03T20:35:33.394Z,68.30
2023-07-03T20:38:01.143Z,68.30
2023-07-03T20:40:29.073Z,68.40
2023-07-03T20:42:59.929Z,68.30
2023-07-03T20:45:28.329Z,68.30
2023-07-03T20:47:57.046Z,68.30
2023-07-03T20:50:28.049Z,68.30
2023-07-03T20:53:10.580Z,68.30
2023-07-03T20:55:44.285Z,68.40
2023-07-03T20:58:12.717Z,68.20
2023-07-03T21:00:40.489Z,68.30
2023-07-03T21:03:08.362Z,68.20
2023-07-03T21:05:41.788Z,68.10
2023-07-03T21:08:11.688Z,68.20
2023-07-03T21:10:39.670Z,68.10
2023-07-03T21:13:07.507Z,68.20
2023-07-03T21:15:35.302Z,68.10
2023-07-03T21:18:03.311Z,68.20
2023-07-03T21:20:31.195Z,68.20
2023-07-03T21:23:01.796Z,68.10
2023-07-03T21:25:30.937Z,68.20
2023-07-03T21:27:58.793Z,68.20
2023-07-03T21:30:26.699Z,68.20
2023-07-03T21:32:54.865Z,68.30
2023-07-03T21:35:23.031Z,68.30
2023-07-03T21:37:50.898Z,68.40
2023-07-03T21:40:20.110Z,68.30
2023-07-03T21:42:47.993Z,68.20
2023-07-03T21:45:15.964Z,68.20
2023-07-03T21:47:49.332Z,68.10
2023-07-03T21:50:18.375Z,68.10
2023-07-03T21:52:47.135Z,68.10
2023-07-03T21:55:14.955Z,68.10
2023-07-03T21:57:44.120Z,68.20
2023-07-03T22:00:14.160Z,68.20
2023-07-03T22:02:42.417Z,68.20
2023-07-03T22:05:10.928Z,68.20
2023-07-03T22:07:38.984Z,68.30
2023-07-03T22:10:07.794Z,68.20
2023-07-03T22:12:35.639Z,68.20
2023-07-03T22:15:05.852Z,68.20
2023-07-03T22:17:33.628Z,68.20
2023-07-03T22:20:02.545Z,68.20
2023-07-03T22:22:30.895Z,68.30
2023-07-03T22:25:01.467Z,68.20
2023-07-03T22:27:29.336Z,68.10
2023-07-03T22:29:57.501Z,68.10
2023-07-03T22:32:30.272Z,68.20
2023-07-03T22:34:58.413Z,68.20
2023-07-03T22:37:26.194Z,68.10
2023-07-03T22:39:54.003Z,68.20
2023-07-03T22:42:21.829Z,68.20
2023-07-03T22:44:49.938Z,68.30
2023-07-03T22:47:17.708Z,68.30
2023-07-03T22:49:48.507Z,68.10
2023-07-03T22:52:16.433Z,68.10
2023-07-03T22:54:47.348Z,68.10
2023-07-03T22:57:15.230Z,68.20
2023-07-03T22:59:43.027Z,68.30
2023-07-03T23:02:10.764Z,68.30
2023-07-03T23:04:38.608Z,68.50
2023-07-03T23:07:08.627Z,68.50
2023-07-03T23:09:37.371Z,68.60
2023-07-03T23:12:05.878Z,68.50
2023-07-03T23:14:33.902Z,68.50
2023-07-03T23:17:06.006Z,68.50
2023-07-03T23:19:33.888Z,68.50
2023-07-03T23:22:01.666Z,68.60
2023-07-03T23:24:37.938Z,68.50
2023-07-03T23:27:06.669Z,68.60
2023-07-03T23:29:34.504Z,68.70
2023-07-03T23:32:02.558Z,68.70
2023-07-03T23:34:30.861Z,68.80
2023-07-03T23:36:58.795Z,68.80
2023-07-03T23:39:27.621Z,68.80
2023-07-03T23:41:56.766Z,68.90
2023-07-03T23:44:25.324Z,68.80
2023-07-03T23:46:53.340Z,68.80
2023-07-03T23:49:21.152Z,68.80
2023-07-03T23:51:49.903Z,68.90
2023-07-03T23:54:17.841Z,68.90
2023-07-03T23:56:46.928Z,68.90
2023-07-03T23:59:20.124Z,68.90
